sensor_id;sensor_type;location;lat;lon;timestamp;pressure;altitude;pressure_sealevel;temperature;humidity
79127;BME280;68528;48.814;8.904;2023-07-29T06:56:56;95983.47;;;16.49;100.00
79127;BME280;68528;48.814;8.904;2023-07-29T06:59:25;95972.03;;;16.47;100.00
79127;BME280;68528;48.814;8.904;2023-07-29T07:01:51;95972.38;;;16.53;100.00
79127;BME280;68528;48.814;8.904;2023-07-29T07:04:16;95963.66;;;16.58;100.00
79127;BME280;68528;48.814;8.904;2023-07-29T07:06:41;95968.63;;;16.70;100.00
79127;BME280;68528;48.814;8.904;2023-07-29T07:09:07;95962.88;;;16.57;100.00
79127;BME280;68528;48.814;8.904;2023-07-29T07:11:32;95954.19;;;16.55;100.00
79127;BME280;68528;48.814;8.904;2023-07-29T07:13:57;95962.50;;;16.55;100.00
79127;BME280;68528;48.814;8.904;2023-07-29T07:16:24;95960.09;;;16.57;100.00
79127;BME280;68528;48.814;8.904;2023-07-29T07:18:51;95954.94;;;16.59;100.00
79127;BME280;68528;48.814;8.904;2023-07-29T07:21:16;95972.88;;;16.78;100.00
79127;BME280;68528;48.814;8.904;2023-07-29T07:23:42;95975.91;;;16.87;100.00
79127;BME280;68528;48.814;8.904;2023-07-29T07:26:07;95969.09;;;16.95;100.00
79127;BME280;68528;48.814;8.904;2023-07-29T07:28:34;95968.94;;;17.05;100.00
79127;BME280;68528;48.814;8.904;2023-07-29T07:31:01;95967.72;;;17.06;100.00
79127;BME280;68528;48.814;8.904;2023-07-29T07:33:42;95958.56;;;17.13;100.00
79127;BME280;68528;48.814;8.904;2023-07-29T07:36:12;95972.50;;;17.33;100.00
79127;BME280;68528;48.814;8.904;2023-07-29T07:38:37;95964.34;;;17.49;100.00
79127;BME280;68528;48.814;8.904;2023-07-29T07:41:02;95964.09;;;17.66;100.00
79127;BME280;68528;48.814;8.904;2023-07-29T07:43:28;95956.34;;;17.81;100.00
79127;BME280;68528;48.814;8.904;2023-07-29T07:46:00;95954.44;;;18.63;100.00
79127;BME280;68528;48.814;8.904;2023-07-29T07:48:26;95945.91;;;19.94;100.00
79127;BME280;68528;48.814;8.904;2023-07-29T07:50:51;95940.19;;;21.03;100.00
79127;BME280;68528;48.814;8.904;2023-07-29T07:53:17;95939.50;;;22.00;98.20
79127;BME280;68528;48.814;8.904;2023-07-29T07:55:42;95942.00;;;22.32;94.96
79127;BME280;68528;48.814;8.904;2023-07-29T07:58:08;95947.94;;;22.77;91.98
79127;BME280;68528;48.814;8.904;2023-07-29T08:00:33;95949.13;;;22.89;87.40
79127;BME280;68528;48.814;8.904;2023-07-29T08:02:58;95962.75;;;22.65;93.48
79127;BME280;68528;48.814;8.904;2023-07-29T08:05:24;95967.91;;;22.54;93.88
79127;BME280;68528;48.814;8.904;2023-07-29T08:07:49;95962.31;;;22.20;96.46
79127;BME280;68528;48.814;8.904;2023-07-29T08:10:19;95982.78;;;22.04;89.25
79127;BME280;68528;48.814;8.904;2023-07-29T08:12:44;95976.44;;;21.53;88.12
79127;BME280;68528;48.814;8.904;2023-07-29T08:15:10;95980.75;;;20.88;92.70
79127;BME280;68528;48.814;8.904;2023-07-29T08:17:36;95995.59;;;20.40;92.81
79127;BME280;68528;48.814;8.904;2023-07-29T08:20:04;95973.34;;;19.92;96.34
79127;BME280;68528;48.814;8.904;2023-07-29T08:22:31;95984.03;;;19.61;97.41
79127;BME280;68528;48.814;8.904;2023-07-29T08:24:57;95973.19;;;19.31;100.00
79127;BME280;68528;48.814;8.904;2023-07-29T08:27:27;95967.63;;;19.15;100.00
79127;BME280;68528;48.814;8.904;2023-07-29T08:30:44;95997.47;;;19.46;100.00
79127;BME280;68528;48.814;8.904;2023-07-29T08:33:09;95985.63;;;19.78;100.00
79127;BME280;68528;48.814;8.904;2023-07-29T08:35:35;95987.59;;;20.26;97.60
79127;BME280;68528;48.814;8.904;2023-07-29T08:38:01;95989.28;;;20.81;96.25
79127;BME280;68528;48.814;8.904;2023-07-29T08:40:29;95988.31;;;21.16;96.17
79127;BME280;68528;48.814;8.904;2023-07-29T08:42:56;95977.75;;;21.36;94.62
79127;BME280;68528;48.814;8.904;2023-07-29T08:45:25;95986.63;;;21.19;93.18
79127;BME280;68528;48.814;8.904;2023-07-29T08:48:08;95982.44;;;20.98;93.52
79127;BME280;68528;48.814;8.904;2023-07-29T08:51:03;95984.28;;;21.17;88.53
79127;BME280;68528;48.814;8.904;2023-07-29T08:53:31;95993.19;;;22.38;85.80
79127;BME280;68528;48.814;8.904;2023-07-29T08:55:56;95977.22;;;22.73;87.77
79127;BME280;68528;48.814;8.904;2023-07-29T08:58:24;95973.50;;;22.07;87.00
79127;BME280;68528;48.814;8.904;2023-07-29T09:00:50;95985.09;;;21.80;90.04
79127;BME280;68528;48.814;8.904;2023-07-29T09:03:16;95980.22;;;21.72;90.10
79127;BME280;68528;48.814;8.904;2023-07-29T09:05:52;95980.53;;;21.61;89.06
79127;BME280;68528;48.814;8.904;2023-07-29T09:08:18;95965.28;;;22.38;89.75
79127;BME280;68528;48.814;8.904;2023-07-29T09:10:44;95962.75;;;23.08;86.42
79127;BME280;68528;48.814;8.904;2023-07-29T09:13:12;95964.69;;;23.91;82.23
79127;BME280;68528;48.814;8.904;2023-07-29T09:15:39;95966.03;;;24.08;82.10
79127;BME280;68528;48.814;8.904;2023-07-29T09:18:26;95969.06;;;24.86;85.48
79127;BME280;68528;48.814;8.904;2023-07-29T09:20:53;95966.88;;;24.63;82.60
79127;BME280;68528;48.814;8.904;2023-07-29T09:23:20;95960.31;;;24.30;80.24
79127;BME280;68528;48.814;8.904;2023-07-29T09:25:53;95957.19;;;24.18;72.60
79127;BME280;68528;48.814;8.904;2023-07-29T09:28:25;95953.78;;;23.75;79.60
79127;BME280;68528;48.814;8.904;2023-07-29T09:30:50;95954.94;;;23.56;77.02
79127;BME280;68528;48.814;8.904;2023-07-29T09:33:18;95967.63;;;22.95;77.63
79127;BME280;68528;48.814;8.904;2023-07-29T09:35:44;95970.81;;;22.16;86.64
79127;BME280;68528;48.814;8.904;2023-07-29T09:38:14;95973.97;;;21.68;91.06
79127;BME280;68528;48.814;8.904;2023-07-29T09:40:43;95985.22;;;21.39;93.81
79127;BME280;68528;48.814;8.904;2023-07-29T09:43:13;95977.59;;;21.15;94.44
79127;BME280;68528;48.814;8.904;2023-07-29T09:45:42;95978.53;;;20.95;94.11
79127;BME280;68528;48.814;8.904;2023-07-29T09:48:09;95974.69;;;20.77;79.93
79127;BME280;68528;48.814;8.904;2023-07-29T09:50:39;95981.13;;;20.61;85.20
79127;BME280;68528;48.814;8.904;2023-07-29T09:53:07;95992.94;;;20.49;86.85
79127;BME280;68528;48.814;8.904;2023-07-29T09:55:33;96004.56;;;20.31;81.61
79127;BME280;68528;48.814;8.904;2023-07-29T09:58:00;96009.94;;;20.22;82.02
79127;BME280;68528;48.814;8.904;2023-07-29T10:00:35;96002.06;;;20.21;81.55
79127;BME280;68528;48.814;8.904;2023-07-29T10:03:04;96001.56;;;20.39;80.68
79127;BME280;68528;48.814;8.904;2023-07-29T10:05:31;96005.25;;;20.36;84.95
79127;BME280;68528;48.814;8.904;2023-07-29T10:08:06;95984.28;;;20.15;82.29
79127;BME280;68528;48.814;8.904;2023-07-29T10:10:32;96001.56;;;20.06;84.30
79127;BME280;68528;48.814;8.904;2023-07-29T10:13:00;95990.91;;;19.89;82.35
79127;BME280;68528;48.814;8.904;2023-07-29T10:15:27;95994.13;;;19.87;83.96
79127;BME280;68528;48.814;8.904;2023-07-29T10:17:54;96001.94;;;19.92;82.01
79127;BME280;68528;48.814;8.904;2023-07-29T10:20:21;96017.13;;;19.88;85.21
79127;BME280;68528;48.814;8.904;2023-07-29T10:22:47;96011.16;;;19.89;89.09
79127;BME280;68528;48.814;8.904;2023-07-29T10:27:55;95994.53;;;20.18;84.32
79127;BME280;68528;48.814;8.904;2023-07-29T10:30:22;96003.44;;;20.58;83.18
79127;BME280;68528;48.814;8.904;2023-07-29T10:32:49;96000.81;;;20.95;78.64
79127;BME280;68528;48.814;8.904;2023-07-29T10:35:15;95999.38;;;21.57;82.33
79127;BME280;68528;48.814;8.904;2023-07-29T10:37:42;96008.19;;;21.68;79.45
79127;BME280;68528;48.814;8.904;2023-07-29T10:40:09;95999.25;;;21.73;84.18
79127;BME280;68528;48.814;8.904;2023-07-29T10:42:36;95994.06;;;22.35;83.77
79127;BME280;68528;48.814;8.904;2023-07-29T10:45:20;95987.00;;;22.43;80.97
79127;BME280;68528;48.814;8.904;2023-07-29T10:47:47;95985.91;;;22.75;72.17
79127;BME280;68528;48.814;8.904;2023-07-29T10:50:20;95990.56;;;23.33;84.41
79127;BME280;68528;48.814;8.904;2023-07-29T10:52:52;95991.03;;;23.63;77.97
79127;BME280;68528;48.814;8.904;2023-07-29T10:55:35;96004.69;;;23.61;69.59
79127;BME280;68528;48.814;8.904;2023-07-29T10:58:12;96002.75;;;23.27;73.73
79127;BME280;68528;48.814;8.904;2023-07-29T11:00:45;95993.00;;;23.31;71.81
79127;BME280;68528;48.814;8.904;2023-07-29T11:03:13;95993.66;;;23.14;73.78
79127;BME280;68528;48.814;8.904;2023-07-29T11:08:31;95993.81;;;23.10;68.41
79127;BME280;68528;48.814;8.904;2023-07-29T11:11:17;96002.84;;;23.14;68.65
79127;BME280;68528;48.814;8.904;2023-07-29T11:13:43;95983.50;;;23.51;75.19
79127;BME280;68528;48.814;8.904;2023-07-29T11:16:10;95977.56;;;23.39;77.11
79127;BME280;68528;48.814;8.904;2023-07-29T11:18:37;95970.41;;;23.78;65.31
79127;BME280;68528;48.814;8.904;2023-07-29T11:21:03;95980.53;;;23.85;70.36
79127;BME280;68528;48.814;8.904;2023-07-29T11:23:34;95966.50;;;24.06;61.37
79127;BME280;68528;48.814;8.904;2023-07-29T11:26:00;95970.13;;;23.85;76.19
79127;BME280;68528;48.814;8.904;2023-07-29T11:28:27;95956.13;;;24.16;75.98
79127;BME280;68528;48.814;8.904;2023-07-29T11:30:54;95952.72;;;24.57;63.91
79127;BME280;68528;48.814;8.904;2023-07-29T11:33:22;95969.25;;;24.82;70.57
79127;BME280;68528;48.814;8.904;2023-07-29T11:35:49;95963.84;;;25.39;65.39
79127;BME280;68528;48.814;8.904;2023-07-29T11:38:18;95970.06;;;25.52;68.78
79127;BME280;68528;48.814;8.904;2023-07-29T11:40:56;95968.25;;;25.22;61.66
79127;BME280;68528;48.814;8.904;2023-07-29T11:43:22;95976.09;;;24.81;66.72
79127;BME280;68528;48.814;8.904;2023-07-29T11:45:49;95956.59;;;24.69;70.37
79127;BME280;68528;48.814;8.904;2023-07-29T11:48:14;95963.50;;;24.77;66.82
79127;BME280;68528;48.814;8.904;2023-07-29T11:50:45;95964.56;;;24.79;69.81
79127;BME280;68528;48.814;8.904;2023-07-29T11:53:15;95956.47;;;24.90;67.08
79127;BME280;68528;48.814;8.904;2023-07-29T11:55:45;95960.94;;;25.42;63.48
79127;BME280;68528;48.814;8.904;2023-07-29T11:58:16;95952.50;;;25.33;65.15
79127;BME280;68528;48.814;8.904;2023-07-29T12:00:41;95968.41;;;25.36;62.82
79127;BME280;68528;48.814;8.904;2023-07-29T12:03:08;95961.72;;;25.25;57.85
79127;BME280;68528;48.814;8.904;2023-07-29T12:05:36;95954.59;;;25.06;60.67
79127;BME280;68528;48.814;8.904;2023-07-29T12:08:01;95948.38;;;25.02;59.39
79127;BME280;68528;48.814;8.904;2023-07-29T12:10:27;95948.50;;;25.07;59.93
79127;BME280;68528;48.814;8.904;2023-07-29T12:12:55;95953.91;;;25.38;54.04
79127;BME280;68528;48.814;8.904;2023-07-29T12:15:28;95962.88;;;25.60;51.43
79127;BME280;68528;48.814;8.904;2023-07-29T12:17:54;95961.81;;;25.39;54.70
79127;BME280;68528;48.814;8.904;2023-07-29T12:20:21;95951.03;;;24.96;56.20
79127;BME280;68528;48.814;8.904;2023-07-29T12:22:57;95965.78;;;25.06;49.16
79127;BME280;68528;48.814;8.904;2023-07-29T12:25:23;95961.53;;;25.28;55.10
79127;BME280;68528;48.814;8.904;2023-07-29T12:27:49;95957.41;;;24.97;54.57
79127;BME280;68528;48.814;8.904;2023-07-29T12:30:41;95964.56;;;24.88;56.94
79127;BME280;68528;48.814;8.904;2023-07-29T12:33:34;95955.38;;;25.06;53.79
79127;BME280;68528;48.814;8.904;2023-07-29T12:36:00;95945.50;;;25.29;58.80
79127;BME280;68528;48.814;8.904;2023-07-29T12:38:27;95940.81;;;25.53;60.53
79127;BME280;68528;48.814;8.904;2023-07-29T12:40:52;95951.78;;;25.98;56.14
79127;BME280;68528;48.814;8.904;2023-07-29T12:43:19;95938.16;;;26.62;48.70
79127;BME280;68528;48.814;8.904;2023-07-29T12:45:45;95938.06;;;26.95;52.47
79127;BME280;68528;48.814;8.904;2023-07-29T12:48:12;95929.22;;;27.02;50.83
79127;BME280;68528;48.814;8.904;2023-07-29T12:50:38;95947.56;;;27.70;48.65
79127;BME280;68528;48.814;8.904;2023-07-29T12:53:07;95951.16;;;27.27;50.89
79127;BME280;68528;48.814;8.904;2023-07-29T12:55:33;95940.63;;;27.51;43.98
79127;BME280;68528;48.814;8.904;2023-07-29T12:57:58;95936.72;;;27.49;43.83
79127;BME280;68528;48.814;8.904;2023-07-29T13:00:24;95946.09;;;27.31;43.87
79127;BME280;68528;48.814;8.904;2023-07-29T13:02:50;95940.88;;;26.95;46.13
79127;BME280;68528;48.814;8.904;2023-07-29T13:05:16;95937.47;;;26.53;52.93
79127;BME280;68528;48.814;8.904;2023-07-29T13:07:42;95952.03;;;26.18;52.40
79127;BME280;68528;48.814;8.904;2023-07-29T13:10:12;95942.44;;;26.10;53.33
79127;BME280;68528;48.814;8.904;2023-07-29T13:12:38;95934.63;;;25.73;52.63
79127;BME280;68528;48.814;8.904;2023-07-29T13:15:04;95936.00;;;25.77;53.79
79127;BME280;68528;48.814;8.904;2023-07-29T13:17:29;95944.81;;;26.26;44.46
79127;BME280;68528;48.814;8.904;2023-07-29T13:19:55;95951.03;;;26.30;51.54
79127;BME280;68528;48.814;8.904;2023-07-29T13:22:21;95946.13;;;26.16;44.78
79127;BME280;68528;48.814;8.904;2023-07-29T13:24:46;95946.03;;;25.69;50.60
79127;BME280;68528;48.814;8.904;2023-07-29T13:27:12;95951.41;;;25.49;50.19
79127;BME280;68528;48.814;8.904;2023-07-29T13:29:37;95947.75;;;24.98;53.45
79127;BME280;68528;48.814;8.904;2023-07-29T13:32:03;95944.66;;;24.77;50.64
79127;BME280;68528;48.814;8.904;2023-07-29T13:34:28;95942.44;;;24.54;52.25
79127;BME280;68528;48.814;8.904;2023-07-29T13:36:53;95938.41;;;24.46;58.39
79127;BME280;68528;48.814;8.904;2023-07-29T13:39:19;95932.50;;;24.71;52.25
79127;BME280;68528;48.814;8.904;2023-07-29T13:41:44;95941.53;;;24.93;52.34
79127;BME280;68528;48.814;8.904;2023-07-29T13:44:10;95948.06;;;24.90;56.41
79127;BME280;68528;48.814;8.904;2023-07-29T13:46:35;95939.66;;;24.90;57.09
79127;BME280;68528;48.814;8.904;2023-07-29T13:49:00;95921.47;;;24.95;59.36
79127;BME280;68528;48.814;8.904;2023-07-29T13:51:28;95931.97;;;25.27;47.92
79127;BME280;68528;48.814;8.904;2023-07-29T13:53:53;95934.19;;;25.14;48.64
79127;BME280;68528;48.814;8.904;2023-07-29T13:56:19;95936.72;;;24.94;54.14
79127;BME280;68528;48.814;8.904;2023-07-29T13:58:49;95934.06;;;25.00;55.46
79127;BME280;68528;48.814;8.904;2023-07-29T14:01:18;95935.25;;;25.26;58.62
79127;BME280;68528;48.814;8.904;2023-07-29T14:03:47;95944.13;;;25.75;50.37
79127;BME280;68528;48.814;8.904;2023-07-29T14:06:12;95948.09;;;25.59;53.21
79127;BME280;68528;48.814;8.904;2023-07-29T14:08:38;95942.41;;;25.45;58.81
79127;BME280;68528;48.814;8.904;2023-07-29T14:11:05;95938.56;;;25.66;54.96
79127;BME280;68528;48.814;8.904;2023-07-29T14:13:31;95931.97;;;25.78;53.08
79127;BME280;68528;48.814;8.904;2023-07-29T14:15:56;95928.16;;;25.90;49.27
79127;BME280;68528;48.814;8.904;2023-07-29T14:18:22;95954.09;;;25.76;48.11
79127;BME280;68528;48.814;8.904;2023-07-29T14:20:47;95944.47;;;24.99;57.14
79127;BME280;68528;48.814;8.904;2023-07-29T14:23:13;95944.63;;;24.59;56.94
79127;BME280;68528;48.814;8.904;2023-07-29T14:25:38;95950.84;;;24.36;55.83
79127;BME280;68528;48.814;8.904;2023-07-29T14:28:04;95947.59;;;24.29;51.96
79127;BME280;68528;48.814;8.904;2023-07-29T14:30:29;95953.31;;;24.16;53.61
79127;BME280;68528;48.814;8.904;2023-07-29T14:32:56;95947.88;;;24.22;54.53
79127;BME280;68528;48.814;8.904;2023-07-29T14:35:21;95949.84;;;24.03;53.30
79127;BME280;68528;48.814;8.904;2023-07-29T14:38:07;95942.91;;;23.77;54.90
79127;BME280;68528;48.814;8.904;2023-07-29T14:40:32;95939.00;;;23.65;54.21
79127;BME280;68528;48.814;8.904;2023-07-29T14:43:00;95954.13;;;23.86;54.04
79127;BME280;68528;48.814;8.904;2023-07-29T14:45:26;95951.31;;;23.77;61.88
79127;BME280;68528;48.814;8.904;2023-07-29T14:47:52;95939.22;;;23.80;55.81
79127;BME280;68528;48.814;8.904;2023-07-29T14:50:20;95950.72;;;23.91;55.59
79127;BME280;68528;48.814;8.904;2023-07-29T14:52:45;95936.38;;;23.71;57.54
79127;BME280;68528;48.814;8.904;2023-07-29T14:55:13;95935.03;;;23.45;60.06
79127;BME280;68528;48.814;8.904;2023-07-29T14:57:39;95939.84;;;23.44;62.83
79127;BME280;68528;48.814;8.904;2023-07-29T15:00:06;95928.69;;;23.44;58.23
79127;BME280;68528;48.814;8.904;2023-07-29T15:02:32;95939.78;;;23.66;61.17
79127;BME280;68528;48.814;8.904;2023-07-29T15:04:58;95927.16;;;24.01;57.35
79127;BME280;68528;48.814;8.904;2023-07-29T15:07:26;95946.22;;;23.93;57.99
79127;BME280;68528;48.814;8.904;2023-07-29T15:09:51;95942.13;;;23.76;58.46
79127;BME280;68528;48.814;8.904;2023-07-29T15:12:17;95943.00;;;23.55;60.89
79127;BME280;68528;48.814;8.904;2023-07-29T15:14:42;95936.31;;;23.53;62.88
79127;BME280;68528;48.814;8.904;2023-07-29T15:17:09;95945.94;;;23.52;61.57
79127;BME280;68528;48.814;8.904;2023-07-29T15:19:42;95946.53;;;23.47;61.45
79127;BME280;68528;48.814;8.904;2023-07-29T15:22:15;95928.69;;;23.22;60.46
79127;BME280;68528;48.814;8.904;2023-07-29T15:24:40;95942.38;;;23.29;59.97
79127;BME280;68528;48.814;8.904;2023-07-29T15:27:10;95941.41;;;23.23;59.58
79127;BME280;68528;48.814;8.904;2023-07-29T15:29:35;95931.44;;;23.35;57.67
79127;BME280;68528;48.814;8.904;2023-07-29T15:32:02;95932.31;;;23.32;62.69
79127;BME280;68528;48.814;8.904;2023-07-29T15:34:30;95957.38;;;23.45;62.58
79127;BME280;68528;48.814;8.904;2023-07-29T15:37:07;95944.16;;;23.36;61.95
79127;BME280;68528;48.814;8.904;2023-07-29T15:39:33;95937.72;;;23.26;62.77
79127;BME280;68528;48.814;8.904;2023-07-29T15:41:58;95929.38;;;23.05;60.73
79127;BME280;68528;48.814;8.904;2023-07-29T15:44:24;95938.59;;;23.14;60.80
79127;BME280;68528;48.814;8.904;2023-07-29T15:46:49;95946.41;;;22.98;61.14
79127;BME280;68528;48.814;8.904;2023-07-29T15:49:19;95947.88;;;23.11;58.78
79127;BME280;68528;48.814;8.904;2023-07-29T15:51:47;95943.94;;;23.30;57.32
79127;BME280;68528;48.814;8.904;2023-07-29T15:54:12;95929.84;;;23.34;63.18
79127;BME280;68528;48.814;8.904;2023-07-29T15:56:39;95924.84;;;23.60;58.01
79127;BME280;68528;48.814;8.904;2023-07-29T15:59:10;95931.41;;;23.75;55.68
79127;BME280;68528;48.814;8.904;2023-07-29T16:01:37;95928.69;;;23.44;59.46
79127;BME280;68528;48.814;8.904;2023-07-29T16:04:03;95911.00;;;23.25;59.10
79127;BME280;68528;48.814;8.904;2023-07-29T16:06:31;95909.72;;;23.39;55.93
79127;BME280;68528;48.814;8.904;2023-07-29T16:08:56;95918.34;;;23.01;59.90
79127;BME280;68528;48.814;8.904;2023-07-29T16:11:22;95928.25;;;23.02;61.42
79127;BME280;68528;48.814;8.904;2023-07-29T16:13:50;95905.59;;;23.00;58.16
79127;BME280;68528;48.814;8.904;2023-07-29T16:16:16;95909.72;;;23.17;58.22
79127;BME280;68528;48.814;8.904;2023-07-29T16:18:41;95917.94;;;23.12;59.05
79127;BME280;68528;48.814;8.904;2023-07-29T16:21:07;95920.81;;;22.99;59.39
79127;BME280;68528;48.814;8.904;2023-07-29T16:23:33;95916.28;;;22.71;57.42
79127;BME280;68528;48.814;8.904;2023-07-29T16:25:59;95921.06;;;22.92;56.00
79127;BME280;68528;48.814;8.904;2023-07-29T16:28:26;95921.84;;;22.71;59.83
79127;BME280;68528;48.814;8.904;2023-07-29T16:30:52;95906.63;;;22.29;61.59
79127;BME280;68528;48.814;8.904;2023-07-29T16:33:17;95913.84;;;22.05;62.00
79127;BME280;68528;48.814;8.904;2023-07-29T16:35:43;95920.03;;;21.87;62.39
79127;BME280;68528;48.814;8.904;2023-07-29T16:38:08;95908.41;;;21.88;62.21
79127;BME280;68528;48.814;8.904;2023-07-29T16:40:33;95903.75;;;21.85;63.04
79127;BME280;68528;48.814;8.904;2023-07-29T16:42:59;95914.13;;;21.85;62.83
79127;BME280;68528;48.814;8.904;2023-07-29T16:45:25;95913.31;;;21.97;60.90
79127;BME280;68528;48.814;8.904;2023-07-29T16:47:52;95912.53;;;21.71;61.51
79127;BME280;68528;48.814;8.904;2023-07-29T16:50:20;95911.66;;;21.62;61.63
79127;BME280;68528;48.814;8.904;2023-07-29T16:52:45;95915.47;;;21.55;61.31
79127;BME280;68528;48.814;8.904;2023-07-29T16:55:11;95919.72;;;21.47;62.83
79127;BME280;68528;48.814;8.904;2023-07-29T16:57:36;95920.59;;;21.44;63.05
79127;BME280;68528;48.814;8.904;2023-07-29T17:00:02;95916.47;;;21.49;62.89
79127;BME280;68528;48.814;8.904;2023-07-29T17:02:31;95909.91;;;21.55;64.77
79127;BME280;68528;48.814;8.904;2023-07-29T17:04:59;95924.47;;;21.59;63.54
79127;BME280;68528;48.814;8.904;2023-07-29T17:07:25;95922.59;;;21.56;62.74
79127;BME280;68528;48.814;8.904;2023-07-29T17:09:52;95927.28;;;21.59;63.75
79127;BME280;68528;48.814;8.904;2023-07-29T17:12:17;95930.06;;;21.59;67.98
79127;BME280;68528;48.814;8.904;2023-07-29T17:14:43;95926.16;;;21.57;65.16
79127;BME280;68528;48.814;8.904;2023-07-29T17:17:08;95934.41;;;21.60;62.99
79127;BME280;68528;48.814;8.904;2023-07-29T17:19:33;95935.28;;;21.57;62.33
79127;BME280;68528;48.814;8.904;2023-07-29T17:21:59;95939.97;;;21.73;61.98
79127;BME280;68528;48.814;8.904;2023-07-29T17:24:26;95944.88;;;21.81;60.73
79127;BME280;68528;48.814;8.904;2023-07-29T17:26:53;95950.44;;;21.81;60.79
79127;BME280;68528;48.814;8.904;2023-07-29T17:29:18;95935.63;;;21.84;63.07
79127;BME280;68528;48.814;8.904;2023-07-29T17:31:47;95947.09;;;21.86;63.14
79127;BME280;68528;48.814;8.904;2023-07-29T17:34:13;95946.31;;;21.86;62.28
79127;BME280;68528;48.814;8.904;2023-07-29T17:36:38;95953.34;;;21.91;62.74
79127;BME280;68528;48.814;8.904;2023-07-29T17:39:04;95956.91;;;22.04;65.66
79127;BME280;68528;48.814;8.904;2023-07-29T17:41:32;95965.59;;;22.06;64.99
79127;BME280;68528;48.814;8.904;2023-07-29T17:43:59;95955.91;;;21.98;64.32
79127;BME280;68528;48.814;8.904;2023-07-29T17:46:26;95957.25;;;21.93;65.37
79127;BME280;68528;48.814;8.904;2023-07-29T17:48:51;95970.72;;;21.95;65.59
79127;BME280;68528;48.814;8.904;2023-07-29T17:51:17;95966.72;;;21.70;65.89
79127;BME280;68528;48.814;8.904;2023-07-29T17:53:43;95972.19;;;21.86;64.70
79127;BME280;68528;48.814;8.904;2023-07-29T17:56:09;95954.34;;;21.71;65.06
79127;BME280;68528;48.814;8.904;2023-07-29T17:58:35;95946.56;;;21.41;67.63
79127;BME280;68528;48.814;8.904;2023-07-29T18:01:04;95945.78;;;21.28;68.85
79127;BME280;68528;48.814;8.904;2023-07-29T18:03:32;95943.31;;;21.05;69.47
79127;BME280;68528;48.814;8.904;2023-07-29T18:05:58;95938.34;;;20.96;69.51
79127;BME280;68528;48.814;8.904;2023-07-29T18:08:24;95936.28;;;20.72;70.62
79127;BME280;68528;48.814;8.904;2023-07-29T18:10:53;95943.03;;;20.58;71.53
79127;BME280;68528;48.814;8.904;2023-07-29T18:13:21;95938.56;;;20.48;71.29
79127;BME280;68528;48.814;8.904;2023-07-29T18:15:51;95950.66;;;20.42;72.51
79127;BME280;68528;48.814;8.904;2023-07-29T18:18:18;95962.50;;;20.29;72.40
79127;BME280;68528;48.814;8.904;2023-07-29T18:20:43;95959.72;;;20.29;72.01
79127;BME280;68528;48.814;8.904;2023-07-29T18:23:09;95957.03;;;20.26;71.63
79127;BME280;68528;48.814;8.904;2023-07-29T18:25:35;95962.50;;;20.13;72.80
79127;BME280;68528;48.814;8.904;2023-07-29T18:28:01;95971.53;;;20.01;72.65
79127;BME280;68528;48.814;8.904;2023-07-29T18:30:27;95960.69;;;19.91;72.34
79127;BME280;68528;48.814;8.904;2023-07-29T18:32:54;95975.72;;;19.93;73.85
79127;BME280;68528;48.814;8.904;2023-07-29T18:35:19;95975.38;;;19.91;73.18
79127;BME280;68528;48.814;8.904;2023-07-29T18:37:46;95979.72;;;19.92;73.18
79127;BME280;68528;48.814;8.904;2023-07-29T18:40:18;95971.38;;;19.76;74.40
79127;BME280;68528;48.814;8.904;2023-07-29T18:42:44;95982.75;;;19.66;75.55
79127;BME280;68528;48.814;8.904;2023-07-29T18:45:09;95982.13;;;19.58;75.91
79127;BME280;68528;48.814;8.904;2023-07-29T18:47:34;95975.72;;;19.61;75.70
79127;BME280;68528;48.814;8.904;2023-07-29T18:50:00;95979.44;;;19.54;75.78
79127;BME280;68528;48.814;8.904;2023-07-29T18:52:25;95970.78;;;19.33;76.68
79127;BME280;68528;48.814;8.904;2023-07-29T18:54:56;95973.94;;;19.35;77.13
79127;BME280;68528;48.814;8.904;2023-07-29T18:57:28;95974.13;;;19.24;77.40
79127;BME280;68528;48.814;8.904;2023-07-29T18:59:53;95968.81;;;19.14;77.84
79127;BME280;68528;48.814;8.904;2023-07-29T19:02:19;95983.22;;;19.09;78.56
79127;BME280;68528;48.814;8.904;2023-07-29T19:04:45;95982.22;;;18.99;79.01
79127;BME280;68528;48.814;8.904;2023-07-29T19:07:15;95991.91;;;18.91;79.76
79127;BME280;68528;48.814;8.904;2023-07-29T19:10:01;95981.38;;;18.83;79.73
79127;BME280;68528;48.814;8.904;2023-07-29T19:12:27;95987.06;;;18.75;80.28
79127;BME280;68528;48.814;8.904;2023-07-29T19:14:54;95978.56;;;18.66;80.90
79127;BME280;68528;48.814;8.904;2023-07-29T19:17:21;95992.13;;;18.61;81.93
79127;BME280;68528;48.814;8.904;2023-07-29T19:19:47;95980.88;;;18.48;81.79
79127;BME280;68528;48.814;8.904;2023-07-29T19:22:14;95991.72;;;18.39;83.39
79127;BME280;68528;48.814;8.904;2023-07-29T19:24:42;95991.84;;;18.32;83.93
79127;BME280;68528;48.814;8.904;2023-07-29T19:27:07;95974.19;;;18.23;83.64
79127;BME280;68528;48.814;8.904;2023-07-29T19:29:33;95988.84;;;18.23;84.46
79127;BME280;68528;48.814;8.904;2023-07-29T19:32:00;95978.66;;;18.17;84.24
79127;BME280;68528;48.814;8.904;2023-07-29T19:34:28;95992.59;;;18.13;85.02
79127;BME280;68528;48.814;8.904;2023-07-29T19:36:54;95989.56;;;18.04;86.01
79127;BME280;68528;48.814;8.904;2023-07-29T19:39:58;95994.94;;;17.91;86.80
79127;BME280;68528;48.814;8.904;2023-07-29T19:42:24;95979.00;;;17.76;87.46
79127;BME280;68528;48.814;8.904;2023-07-29T19:44:49;95991.38;;;17.68;88.46
79127;BME280;68528;48.814;8.904;2023-07-29T19:47:15;95990.16;;;17.69;88.37
79127;BME280;68528;48.814;8.904;2023-07-29T19:49:40;95989.44;;;17.65;88.58
79127;BME280;68528;48.814;8.904;2023-07-29T19:52:06;95992.31;;;17.58;88.49
79127;BME280;68528;48.814;8.904;2023-07-29T19:54:32;95999.44;;;17.59;88.72
79127;BME280;68528;48.814;8.904;2023-07-29T19:56:57;96002.56;;;17.61;88.53
79127;BME280;68528;48.814;8.904;2023-07-29T19:59:23;96002.22;;;17.59;88.70
79127;BME280;68528;48.814;8.904;2023-07-29T20:01:49;96003.81;;;17.56;88.68
79127;BME280;68528;48.814;8.904;2023-07-29T20:04:15;95992.81;;;17.53;88.75